createdAt,value
2018-04-26T00:01:30.047Z,65.60
2018-04-26T00:03:57.528Z,65.50
2018-04-26T00:06:24.980Z,66.30
2018-04-26T00:08:52.450Z,67.70
2018-04-26T00:11:19.897Z,67.50
2018-04-26T00:13:47.358Z,68.10
2018-04-26T00:16:14.838Z,66.50
2018-04-26T00:18:42.285Z,67.50
2018-04-26T00:21:09.757Z,67.00
2018-04-26T00:23:37.967Z,66.30
2018-04-26T00:26:05.439Z,66.30
2018-04-26T00:28:32.878Z,65.70
2018-04-26T00:31:00.351Z,65.20
2018-04-26T00:33:27.809Z,65.00
2018-04-26T00:35:55.272Z,64.70
2018-04-26T00:38:22.714Z,64.30
2018-04-26T00:40:50.209Z,64.40
2018-04-26T00:43:17.664Z,63.70
2018-04-26T00:45:45.134Z,63.70
2018-04-26T00:48:13.338Z,64.90
2018-04-26T00:50:40.855Z,64.70
2018-04-26T00:53:08.298Z,65.70
2018-04-26T00:55:35.769Z,64.80
2018-04-26T00:58:03.244Z,65.00
2018-04-26T01:00:31.454Z,65.00
2018-04-26T01:02:58.926Z,65.00
2018-04-26T01:05:26.417Z,65.30
2018-04-26T01:07:53.910Z,65.20
2018-04-26T01:10:21.363Z,64.90
2018-04-26T01:12:48.821Z,65.70
2018-04-26T01:15:16.303Z,65.50
2018-04-26T01:17:43.770Z,65.00
2018-04-26T01:20:11.301Z,65.60
2018-04-26T01:22:38.684Z,65.10
2018-04-26T01:25:06.157Z,64.20
2018-04-26T01:27:35.130Z,65.40
2018-04-26T01:30:02.582Z,65.40
2018-04-26T01:32:30.041Z,65.60
2018-04-26T01:34:57.506Z,65.40
2018-04-26T01:37:36.746Z,65.50
2018-04-26T01:40:04.220Z,66.10
2018-04-26T01:42:32.444Z,64.60
2018-04-26T01:44:59.956Z,64.50
2018-04-26T01:47:28.162Z,63.90
2018-04-26T01:49:55.637Z,63.90
2018-04-26T01:52:24.043Z,63.90
2018-04-26T01:54:51.516Z,63.80
2018-04-26T01:57:19.734Z,63.90
2018-04-26T01:59:47.167Z,63.90
2018-04-26T02:02:14.629Z,63.60
2018-04-26T02:04:42.099Z,62.70
2018-04-26T02:07:09.569Z,63.70
2018-04-26T02:09:37.029Z,63.90
2018-04-26T02:12:04.493Z,63.50
2018-04-26T02:14:31.945Z,63.70
2018-04-26T02:16:59.407Z,63.60
2018-04-26T02:19:26.855Z,63.70
2018-04-26T02:21:54.317Z,63.60
2018-04-26T02:24:21.765Z,63.80
2018-04-26T02:26:49.243Z,62.50
2018-04-26T02:29:18.202Z,63.20
2018-04-26T02:31:45.970Z,63.20
2018-04-26T02:34:13.433Z,63.70
2018-04-26T02:36:40.873Z,63.50
2018-04-26T02:39:08.350Z,65.10
2018-04-26T02:41:35.811Z,64.60
2018-04-26T02:44:03.855Z,64.10
2018-04-26T02:46:31.353Z,64.90
2018-04-26T02:48:58.820Z,65.00
2018-04-26T02:51:26.282Z,65.20
2018-04-26T02:53:54.507Z,65.90
2018-04-26T02:56:21.971Z,65.90
2018-04-26T02:58:49.418Z,66.00
2018-04-26T03:01:16.909Z,65.30
2018-04-26T03:03:44.358Z,65.50
2018-04-26T03:06:11.826Z,65.00
2018-04-26T03:08:39.281Z,64.90
2018-04-26T03:11:06.755Z,65.10
2018-04-26T03:13:35.003Z,65.50
2018-04-26T03:16:02.462Z,65.50
2018-04-26T03:18:29.938Z,65.90
2018-04-26T03:20:58.175Z,65.00
2018-04-26T03:23:25.607Z,65.50
2018-04-26T03:25:53.086Z,65.80
2018-04-26T03:28:20.550Z,66.20
2018-04-26T03:30:48.161Z,67.10
2018-04-26T03:33:15.639Z,66.40
2018-04-26T03:35:43.085Z,66.90
2018-04-26T03:38:10.580Z,67.20
2018-04-26T03:40:38.022Z,67.30
2018-04-26T03:43:05.460Z,67.50
2018-04-26T03:45:32.921Z,67.80
2018-04-26T03:48:00.369Z,67.30
2018-04-26T03:50:27.831Z,66.80
2018-04-26T03:52:55.293Z,66.80
2018-04-26T03:55:22.758Z,66.50
2018-04-26T03:57:50.198Z,67.70
2018-04-26T04:00:29.526Z,68.50
2018-04-26T04:03:08.967Z,67.30
2018-04-26T04:05:48.397Z,66.60
2018-04-26T04:08:15.861Z,67.30
2018-04-26T04:10:43.318Z,67.20
2018-04-26T04:13:10.758Z,67.80
2018-04-26T04:15:38.229Z,68.30
2018-04-26T04:18:05.675Z,67.70
2018-04-26T04:20:33.138Z,68.10
2018-04-26T04:23:00.662Z,67.90
2018-04-26T04:25:28.877Z,66.70
2018-04-26T04:27:56.367Z,66.70
2018-04-26T04:30:23.791Z,66.30
2018-04-26T04:32:51.309Z,66.70
2018-04-26T04:35:18.923Z,65.30
2018-04-26T04:37:46.327Z,65.00
2018-04-26T04:40:14.550Z,65.30
2018-04-26T04:42:42.017Z,65.30
2018-04-26T04:45:09.491Z,64.80
2018-04-26T04:47:36.922Z,65.50
2018-04-26T04:50:04.409Z,65.20
2018-04-26T04:52:31.853Z,64.40
2018-04-26T04:54:59.309Z,63.80
2018-04-26T04:57:26.755Z,64.30
2018-04-26T04:59:54.247Z,65.40
2018-04-26T05:02:22.459Z,64.90
2018-04-26T05:04:49.917Z,64.80
2018-04-26T05:07:17.452Z,63.70
2018-04-26T05:09:44.839Z,63.20
2018-04-26T05:12:12.299Z,62.00
2018-04-26T05:14:39.778Z,62.00
2018-04-26T05:17:07.238Z,62.20
2018-04-26T05:19:34.691Z,61.50
2018-04-26T05:22:02.184Z,60.70
2018-04-26T05:24:30.393Z,61.10
2018-04-26T05:26:57.880Z,61.10
2018-04-26T05:29:25.321Z,61.20
2018-04-26T05:31:52.783Z,61.20
2018-04-26T05:34:20.230Z,61.10
2018-04-26T05:36:47.694Z,61.60
2018-04-26T05:39:15.156Z,61.70
2018-04-26T05:41:42.614Z,61.60
2018-04-26T05:44:10.074Z,61.50
2018-04-26T05:46:37.530Z,61.20
2018-04-26T05:49:04.998Z,61.70
2018-04-26T05:51:32.442Z,61.60
2018-04-26T05:54:00.698Z,60.90
2018-04-26T05:56:28.153Z,60.80
2018-04-26T05:58:55.637Z,61.20
2018-04-26T06:01:23.162Z,61.20
2018-04-26T06:03:50.609Z,61.30
2018-04-26T06:06:18.077Z,61.40
2018-04-26T06:08:45.531Z,60.50
2018-04-26T06:11:13.023Z,59.40
2018-04-26T06:13:41.978Z,58.40
2018-04-26T06:16:09.461Z,58.40
2018-04-26T06:18:38.440Z,58.00
2018-04-26T06:21:05.956Z,57.90
2018-04-26T06:23:33.408Z,57.50
2018-04-26T06:26:01.647Z,58.20
2018-04-26T06:28:29.156Z,58.10
2018-04-26T06:30:56.682Z,58.10
2018-04-26T06:33:24.086Z,57.30
2018-04-26T06:35:51.573Z,57.30
2018-04-26T06:38:19.802Z,56.90
2018-04-26T06:40:47.292Z,57.20
2018-04-26T06:43:14.757Z,56.30
2018-04-26T06:45:42.247Z,56.10
2018-04-26T06:48:10.477Z,55.50
2018-04-26T06:50:37.944Z,55.50
2018-04-26T06:53:05.411Z,55.60
2018-04-26T06:55:32.857Z,54.50
2018-04-26T06:58:00.311Z,53.60
2018-04-26T07:00:27.805Z,53.90
2018-04-26T07:02:55.999Z,55.40
2018-04-26T07:05:23.473Z,54.70
2018-04-26T07:07:50.950Z,54.60
2018-04-26T07:10:18.421Z,54.90
2018-04-26T07:12:45.966Z,55.00
2018-04-26T07:15:13.435Z,55.00
2018-04-26T07:17:42.401Z,54.10
2018-04-26T07:20:09.874Z,54.10
2018-04-26T07:22:37.335Z,54.00
2018-04-26T07:25:05.585Z,54.20
2018-04-26T07:27:33.033Z,54.20
2018-04-26T07:30:00.540Z,54.80
2018-04-26T07:32:27.979Z,54.80
2018-04-26T07:34:55.491Z,55.70
2018-04-26T07:37:22.920Z,55.60
2018-04-26T07:39:51.148Z,55.20
2018-04-26T07:42:18.619Z,55.20
2018-04-26T07:44:46.122Z,54.50
2018-04-26T07:47:13.526Z,55.20
2018-04-26T07:49:40.982Z,55.70
2018-04-26T07:52:08.487Z,56.70
2018-04-26T07:54:35.898Z,57.90
2018-04-26T07:57:03.376Z,57.90
2018-04-26T07:59:31.605Z,59.20
2018-04-26T08:01:59.093Z,58.60
2018-04-26T08:04:26.555Z,58.00
2018-04-26T08:06:54.798Z,57.70
2018-04-26T08:09:22.258Z,57.80
2018-04-26T08:11:49.775Z,57.60
2018-04-26T08:14:17.206Z,57.80
2018-04-26T08:16:45.453Z,57.60
2018-04-26T08:19:12.922Z,57.10
2018-04-26T08:21:40.379Z,57.40
2018-04-26T08:24:07.869Z,56.70
2018-04-26T08:26:36.114Z,57.40
2018-04-26T08:29:03.550Z,57.30
2018-04-26T08:31:31.018Z,57.00
2018-04-26T08:33:58.485Z,56.80
2018-04-26T08:36:25.964Z,57.00
2018-04-26T08:38:54.205Z,56.80
2018-04-26T08:41:21.698Z,56.80
2018-04-26T08:43:49.125Z,56.80
2018-04-26T08:46:17.362Z,56.70
2018-04-26T08:48:44.834Z,56.70
2018-04-26T08:51:12.319Z,56.50
2018-04-26T08:53:39.778Z,56.30
2018-04-26T08:56:07.259Z,56.60
2018-04-26T08:58:35.506Z,56.30
2018-04-26T09:01:03.784Z,56.80
2018-04-26T09:03:31.299Z,56.80
2018-04-26T09:05:58.770Z,56.50
2018-04-26T09:08:26.216Z,56.60
2018-04-26T09:10:53.695Z,56.10
2018-04-26T09:13:21.179Z,55.80
2018-04-26T09:15:49.502Z,56.50
2018-04-26T09:18:17.662Z,56.30
2018-04-26T09:20:45.172Z,56.10
2018-04-26T09:23:12.662Z,56.60
2018-04-26T09:25:40.092Z,57.00
2018-04-26T09:28:08.339Z,56.30
2018-04-26T09:30:35.795Z,56.20
2018-04-26T09:33:03.275Z,55.40
2018-04-26T09:35:30.722Z,55.30
2018-04-26T09:37:58.284Z,54.80
2018-04-26T09:40:25.773Z,54.70
2018-04-26T09:42:53.265Z,53.50
2018-04-26T09:45:20.720Z,51.30
2018-04-26T09:47:48.165Z,51.30
2018-04-26T09:50:15.639Z,50.40
2018-04-26T09:52:43.138Z,50.20
2018-04-26T09:55:11.374Z,51.20
2018-04-26T09:57:38.844Z,51.20
2018-04-26T10:00:07.819Z,49.70
2018-04-26T10:02:40.970Z,49.70
2018-04-26T10:05:08.433Z,49.60
2018-04-26T10:07:35.918Z,49.70
2018-04-26T10:10:03.361Z,49.50
2018-04-26T10:12:30.839Z,48.20
2018-04-26T10:14:58.330Z,47.20
2018-04-26T10:17:25.790Z,46.30
2018-04-26T10:19:54.001Z,44.80
2018-04-26T10:22:21.469Z,44.80
2018-04-26T10:24:48.914Z,44.50
2018-04-26T10:27:16.390Z,44.70
2018-04-26T10:29:43.855Z,43.70
2018-04-26T10:32:11.297Z,44.00
2018-04-26T10:34:38.764Z,42.00
2018-04-26T10:37:06.209Z,41.10
2018-04-26T10:39:33.701Z,41.60
2018-04-26T10:42:01.944Z,42.60
2018-04-26T10:44:29.414Z,42.40
2018-04-26T10:46:56.894Z,43.00
2018-04-26T10:49:24.381Z,43.90
2018-04-26T10:51:51.827Z,45.20
2018-04-26T10:54:19.294Z,46.30
2018-04-26T10:56:46.801Z,46.00
2018-04-26T10:59:14.262Z,45.70
2018-04-26T11:01:41.829Z,45.90
2018-04-26T11:04:09.330Z,44.20
2018-04-26T11:06:36.781Z,43.80
2018-04-26T11:09:04.288Z,43.60
2018-04-26T11:11:31.744Z,42.30
2018-04-26T11:13:59.198Z,43.20
2018-04-26T11:16:26.680Z,42.30
2018-04-26T11:18:54.113Z,41.80
2018-04-26T11:21:21.675Z,41.60
2018-04-26T11:23:49.030Z,37.90
2018-04-26T11:26:16.501Z,35.70
2018-04-26T11:28:44.758Z,36.60
2018-04-26T11:31:13.009Z,36.80
2018-04-26T11:33:40.478Z,36.80
2018-04-26T11:36:07.964Z,37.00
2018-04-26T11:38:35.432Z,36.60
2018-04-26T11:41:03.661Z,35.00
2018-04-26T11:43:31.111Z,35.00
2018-04-26T11:45:58.669Z,36.00
2018-04-26T11:48:26.137Z,34.60
2018-04-26T11:50:54.362Z,36.00
2018-04-26T11:53:21.845Z,36.30
2018-04-26T11:55:49.307Z,36.40
2018-04-26T11:58:16.750Z,36.40
2018-04-26T12:00:44.232Z,37.20
2018-04-26T12:03:11.728Z,36.40
2018-04-26T12:05:39.210Z,35.70
2018-04-26T12:08:06.790Z,35.70
2018-04-26T12:10:34.257Z,33.50
2018-04-26T12:13:01.721Z,33.60
2018-04-26T12:15:29.205Z,33.50
2018-04-26T12:17:57.436Z,32.40
2018-04-26T12:20:24.903Z,32.40
2018-04-26T12:22:52.400Z,32.00
2018-04-26T12:25:19.842Z,31.10
2018-04-26T12:27:47.329Z,31.40
2018-04-26T12:30:14.792Z,30.60
2018-04-26T12:32:42.278Z,30.00
2018-04-26T12:35:09.740Z,30.00
2018-04-26T12:37:37.206Z,30.80
2018-04-26T12:40:04.654Z,31.90
2018-04-26T12:42:32.251Z,32.60
2018-04-26T12:44:59.602Z,33.60
2018-04-26T12:47:27.070Z,33.10
2018-04-26T12:49:55.304Z,33.50
2018-04-26T12:52:22.795Z,33.40
2018-04-26T12:54:51.069Z,31.80
2018-04-26T12:57:19.283Z,32.00
2018-04-26T12:59:46.825Z,32.00
2018-04-26T13:02:14.277Z,32.70
2018-04-26T13:04:41.773Z,30.80
2018-04-26T13:07:09.213Z,30.20
2018-04-26T13:09:36.685Z,31.50
2018-04-26T13:12:04.151Z,30.90
2018-04-26T13:14:31.622Z,31.10
2018-04-26T13:16:59.069Z,31.10
2018-04-26T13:19:26.525Z,31.30
2018-04-26T13:21:53.989Z,31.50
2018-04-26T13:24:21.470Z,30.60
2018-04-26T13:26:49.694Z,30.30
2018-04-26T13:29:17.186Z,30.10
2018-04-26T13:31:44.649Z,29.00
2018-04-26T13:34:12.867Z,29.70
2018-04-26T13:36:40.356Z,29.70
2018-04-26T13:39:07.823Z,28.50
2018-04-26T13:41:35.322Z,27.90
2018-04-26T13:44:03.974Z,28.20
2018-04-26T13:46:32.198Z,28.40
2018-04-26T13:48:59.688Z,28.40
2018-04-26T13:51:27.143Z,27.60
2018-04-26T13:53:54.617Z,26.70
2018-04-26T13:56:22.118Z,27.20
2018-04-26T13:58:49.627Z,27.40
2018-04-26T14:01:17.129Z,27.80
2018-04-26T14:03:44.622Z,27.70
2018-04-26T14:06:12.070Z,28.50
2018-04-26T14:08:39.562Z,28.90
2018-04-26T14:11:07.017Z,28.30
2018-04-26T14:13:34.513Z,28.00
2018-04-26T14:16:01.987Z,27.80
2018-04-26T14:18:29.442Z,27.00
2018-04-26T14:20:56.905Z,26.80
2018-04-26T14:23:24.355Z,26.80
2018-04-26T14:25:51.841Z,27.00
2018-04-26T14:28:19.306Z,27.80
2018-04-26T14:30:46.767Z,27.70
2018-04-26T14:33:14.986Z,28.00
2018-04-26T14:35:42.486Z,28.00
2018-04-26T14:38:09.932Z,28.50
2018-04-26T14:40:37.438Z,28.60
2018-04-26T14:43:05.010Z,28.20
2018-04-26T14:45:32.461Z,27.30
2018-04-26T14:47:59.938Z,27.30
2018-04-26T14:50:27.383Z,27.50
2018-04-26T14:52:54.884Z,27.30
2018-04-26T14:55:22.347Z,26.60
2018-04-26T14:57:49.820Z,26.70
2018-04-26T15:00:18.059Z,26.90
2018-04-26T15:02:45.557Z,26.90
2018-04-26T15:05:13.039Z,26.70
2018-04-26T15:07:40.504Z,27.10
2018-04-26T15:10:07.979Z,27.40
2018-04-26T15:12:35.434Z,25.70
2018-04-26T15:15:02.923Z,26.40
2018-04-26T15:17:30.398Z,27.30
2018-04-26T15:19:57.857Z,26.70
2018-04-26T15:22:25.330Z,27.00
2018-04-26T15:24:52.832Z,27.00
2018-04-26T15:27:20.277Z,26.80
2018-04-26T15:29:47.852Z,27.00
2018-04-26T15:32:15.297Z,26.60
2018-04-26T15:34:42.758Z,27.10
2018-04-26T15:37:10.351Z,26.70
2018-04-26T15:39:38.600Z,27.10
2018-04-26T15:42:06.052Z,27.10
2018-04-26T15:44:33.530Z,28.10
2018-04-26T15:47:01.750Z,28.30
2018-04-26T15:49:29.243Z,28.30
2018-04-26T15:51:56.719Z,28.20
2018-04-26T15:57:34.367Z,27.50
2018-04-26T16:00:13.925Z,28.20
2018-04-26T16:03:00.053Z,28.10
2018-04-26T16:05:39.295Z,28.20
2018-04-26T16:08:25.130Z,28.00
2018-04-26T16:11:10.540Z,28.00
2018-04-26T16:13:55.591Z,28.30
2018-04-26T16:16:40.860Z,28.10
2018-04-26T16:19:32.829Z,27.50
2018-04-26T16:22:18.894Z,28.40
2018-04-26T16:24:58.450Z,28.30
2018-04-26T16:27:43.731Z,28.10
2018-04-26T16:30:23.166Z,28.10
2018-04-26T16:33:05.388Z,28.50
2018-04-26T16:35:45.327Z,28.30
2018-04-26T16:41:12.293Z,28.70
2018-04-26T16:43:40.553Z,29.10
2018-04-26T16:46:07.998Z,29.60
2018-04-26T16:48:35.480Z,29.20
2018-04-26T16:51:03.727Z,29.80
2018-04-26T16:53:31.209Z,29.30
2018-04-26T16:55:59.435Z,29.20
2018-04-26T16:58:26.886Z,29.20
2018-04-26T17:00:54.365Z,29.60
2018-04-26T17:03:21.836Z,29.90
2018-04-26T17:05:49.288Z,34.90
2018-04-26T17:08:16.747Z,39.20
2018-04-26T17:10:44.304Z,41.00
2018-04-26T17:13:12.555Z,37.20
2018-04-26T17:15:40.018Z,37.10
2018-04-26T17:18:07.542Z,39.10
2018-04-26T17:20:35.027Z,39.70
2018-04-26T17:23:02.521Z,39.30
2018-04-26T17:25:30.841Z,37.60
2018-04-26T17:27:58.324Z,38.00
2018-04-26T17:30:25.794Z,36.30
2018-04-26T17:32:53.288Z,37.90
2018-04-26T17:35:20.784Z,37.30
2018-04-26T17:37:48.292Z,38.30
2018-04-26T17:40:16.550Z,37.20
2018-04-26T17:42:44.028Z,37.10
2018-04-26T17:45:12.251Z,38.30
2018-04-26T17:47:39.714Z,38.30
2018-04-26T17:50:07.218Z,38.00
2018-04-26T17:52:34.707Z,38.40
2018-04-26T17:55:02.182Z,38.50
2018-04-26T17:57:29.670Z,39.30
2018-04-26T17:59:57.119Z,37.50
2018-04-26T18:02:25.460Z,35.50
2018-04-26T18:04:52.907Z,35.30
2018-04-26T18:07:20.359Z,37.30
2018-04-26T18:09:47.858Z,38.30
2018-04-26T18:12:16.160Z,39.00
2018-04-26T18:14:44.394Z,39.20
2018-04-26T18:17:11.866Z,39.10
2018-04-26T18:19:39.448Z,36.20
2018-04-26T18:22:07.696Z,38.40
2018-04-26T18:24:35.164Z,38.40
2018-04-26T18:27:02.649Z,37.90
2018-04-26T18:29:30.173Z,37.80
2018-04-26T18:31:57.672Z,35.80
2018-04-26T18:34:25.059Z,35.40
2018-04-26T18:36:52.557Z,35.80
2018-04-26T18:39:20.787Z,36.90
2018-04-26T18:41:48.248Z,36.70
2018-04-26T18:44:15.735Z,35.80
2018-04-26T18:46:43.249Z,34.80
2018-04-26T18:49:10.709Z,35.70
2018-04-26T18:51:38.204Z,36.00
2018-04-26T18:54:05.689Z,35.70
2018-04-26T18:56:33.943Z,35.20
2018-04-26T18:59:02.197Z,35.60
2018-04-26T19:01:29.679Z,35.50
2018-04-26T19:03:57.915Z,35.20
2018-04-26T19:06:25.393Z,35.00
2018-04-26T19:08:52.913Z,34.40
2018-04-26T19:11:20.368Z,34.80
2018-04-26T19:13:47.844Z,34.70
2018-04-26T19:16:15.300Z,34.30
2018-04-26T19:18:42.844Z,34.70
2018-04-26T19:21:10.320Z,33.60
2018-04-26T19:23:37.814Z,32.30
2018-04-26T19:26:06.073Z,34.20
2018-04-26T19:28:33.523Z,34.10
2018-04-26T19:31:01.031Z,33.60
2018-04-26T19:33:28.498Z,34.20
2018-04-26T19:35:55.991Z,33.90
2018-04-26T19:38:24.219Z,33.60
2018-04-26T19:40:51.728Z,33.60
2018-04-26T19:43:19.178Z,34.00
2018-04-26T19:45:48.185Z,33.90
2018-04-26T19:48:16.900Z,33.80
2018-04-26T19:50:45.251Z,34.80
2018-04-26T19:53:13.486Z,33.80
2018-04-26T19:55:41.722Z,33.70
2018-04-26T19:58:09.971Z,34.60
2018-04-26T20:00:38.279Z,34.70
2018-04-26T20:03:05.751Z,34.70
2018-04-26T20:05:33.238Z,35.00
2018-04-26T20:08:01.479Z,36.00
2018-04-26T20:10:28.982Z,35.30
2018-04-26T20:12:56.487Z,35.60
2018-04-26T20:15:23.944Z,35.40
2018-04-26T20:17:51.411Z,36.40
2018-04-26T20:20:18.902Z,36.20
2018-04-26T20:22:46.404Z,36.00
2018-04-26T20:25:13.858Z,35.50
2018-04-26T20:27:41.346Z,35.80
2018-04-26T20:30:08.833Z,35.70
2018-04-26T20:32:36.363Z,35.60
2018-04-26T20:35:03.828Z,35.50
2018-04-26T20:37:31.316Z,36.00
2018-04-26T20:39:58.790Z,33.90
2018-04-26T20:42:27.054Z,35.00
2018-04-26T20:44:55.309Z,35.50
2018-04-26T20:47:22.780Z,35.40
2018-04-26T20:49:50.255Z,36.70
2018-04-26T20:52:17.702Z,36.70
2018-04-26T20:54:46.067Z,37.50
2018-04-26T20:57:13.551Z,37.50
2018-04-26T20:59:41.806Z,38.60
2018-04-26T21:02:10.042Z,39.60
2018-04-26T21:04:37.532Z,39.60
2018-04-26T21:07:05.006Z,40.00
2018-04-26T21:09:32.454Z,40.80
2018-04-26T21:12:00.714Z,41.40
2018-04-26T21:14:28.182Z,41.30
2018-04-26T21:16:55.658Z,41.40
2018-04-26T21:19:23.111Z,41.30
2018-04-26T21:21:50.600Z,41.00
2018-04-26T21:24:18.060Z,41.00
2018-04-26T21:26:45.965Z,41.60
2018-04-26T21:29:13.439Z,41.60
2018-04-26T21:31:41.661Z,42.30
2018-04-26T21:34:09.139Z,42.30
2018-04-26T21:36:36.618Z,42.50
2018-04-26T21:39:05.649Z,43.40
2018-04-26T21:41:33.136Z,43.40
2018-04-26T21:44:00.624Z,43.50
2018-04-26T21:46:28.862Z,44.10
2018-04-26T21:48:56.346Z,44.10
2018-04-26T21:51:30.335Z,44.60
2018-04-26T21:54:03.514Z,44.80
2018-04-26T21:56:36.755Z,44.90
2018-04-26T21:59:10.630Z,45.20
2018-04-26T22:01:43.901Z,45.20
2018-04-26T22:04:12.981Z,45.20
2018-04-26T22:06:40.458Z,45.40
2018-04-26T22:09:07.930Z,45.10
2018-04-26T22:11:35.414Z,45.20
2018-04-26T22:14:04.066Z,45.50
2018-04-26T22:16:31.625Z,45.40
2018-04-26T22:18:59.130Z,46.10
2018-04-26T22:21:26.656Z,45.70
2018-04-26T22:23:55.175Z,46.00
2018-04-26T22:26:22.977Z,46.00
2018-04-26T22:28:50.497Z,46.30
2018-04-26T22:31:18.245Z,46.50
2018-04-26T22:33:45.838Z,46.80
2018-04-26T22:36:13.346Z,46.80
2018-04-26T22:38:41.555Z,47.00
2018-04-26T22:41:09.037Z,47.00
2018-04-26T22:43:36.497Z,47.10
2018-04-26T22:46:03.939Z,47.50
2018-04-26T22:48:31.652Z,47.50
2018-04-26T22:50:59.195Z,47.80
2018-04-26T22:53:28.280Z,48.00
2018-04-26T22:55:55.853Z,47.90
2018-04-26T22:58:23.324Z,48.10
2018-04-26T23:00:50.871Z,48.20
2018-04-26T23:03:19.167Z,49.60
2018-04-26T23:05:46.633Z,49.40
2018-04-26T23:08:14.121Z,49.00
2018-04-26T23:10:41.559Z,48.90
2018-04-26T23:13:09.024Z,49.20
2018-04-26T23:15:36.487Z,49.40
2018-04-26T23:18:03.944Z,48.90
2018-04-26T23:20:31.406Z,48.60
2018-04-26T23:22:58.862Z,48.80
2018-04-26T23:25:26.333Z,49.10
2018-04-26T23:27:54.556Z,49.80
2018-04-26T23:30:22.046Z,49.80
2018-04-26T23:32:49.515Z,50.10
2018-04-26T23:35:16.977Z,50.00
2018-04-26T23:37:44.413Z,50.00
2018-04-26T23:40:11.905Z,50.20
2018-04-26T23:42:40.118Z,50.90
2018-04-26T23:45:07.598Z,50.90
2018-04-26T23:47:35.048Z,50.90
2018-04-26T23:50:02.529Z,51.00
2018-04-26T23:52:30.006Z,51.10
2018-04-26T23:54:57.473Z,51.30
2018-04-26T23:57:25.709Z,51.60
2018-04-26T23:59:53.178Z,51.50
